Sheridan, WY (82801)

7:50 AM MDT on July 30, 2016 (GMT -0600)
South Sheridan | | Change Station

Elev 3770 ft 44.79 °N, 106.95 °W | Updated 1 second ago

Clear
Clear
61.7 °F
Feels Like 61.7 °F
N
0.0
Wind Variable Wind from SSW
Gusts 0.0 mph

Today
High -- | Low -- °F
--% Chance of Precip.
Yesterday
High -- | Low -- °F
Precip. -- in
Pressure 29.82 in
Visibility 10.0 miles
Clouds Clear
Dew Point 49 °F
Humidity 63%
Rainfall 0.00 in
Snow Depth Not available.
5:52 AM 8:35 PM
Waning Crescent, 13% visible
METAR KSHR 301253Z AUTO 00000KT 10SM CLR 16/09 A2993 RMK AO2 SLP096 T01560094
Pressure 29.82 in
Visibility 10.0 miles
Clouds Clear
Dew Point 49 °F
Humidity 63%
Rainfall 0.00 in
Snow Depth Not available.
5:52 AM 8:35 PM
Waning Crescent, 13% visible
METAR KSHR 301253Z AUTO 00000KT 10SM CLR 16/09 A2993 RMK AO2 SLP096 T01560094

10-Day Weather Forecast

Almanac

Astronomy

Jul. 30, 2016 Rise Set
Actual Time
Civil Twilight
Nautical Twilight
Astronomical Twilight
Moon
Length of Visible Light
Length of Day
Tomorrow will be .
, % of the Moon is Illuminated

Today's Extremes

State Highs State Lows

Community

WunderPhotos

Upload Photos

1,928,560 photos uploaded!

WunderBlog® & News

Nearby

Air Quality

  Air Quality AQ Index Pollutant
Not available.

Snow Depth

Station Depth Elevation

Earthquake Activity

City Distance Mag. Time & Date
Minimum magnitude displayed is 2.5.

Coastal Water Temperatures

Place Temperature

Stations

Nearby Weather Stations

Station Location Temp. Windchill Dew Point Humidity Wind Precip. Elev Updated Type
                   

Watches & Warnings

There are currently no watches in effect.